CEL9 weather

Calgary (Eastlake) Heliport
Calgary, Alberta, Canada

Public forecast

Using degrees Celsius for public forecast. Weather courtesy of forecast.io.

METAR (pilot weather report)

Closest report is Calgary International Airport, 9.7 nm (18.0 km) N. Retrieved 2019/09/21 18:00 UTC (38 minutes ago):

CYYC 211800Z 22007KT 40SM FEW055 FEW100 FEW110 SCT120 SCT210 15/05 A2992 RMK SC1ACC1AC2AC1CI1 SC TR ACC TR SLP147 DENSITY ALT 4500FT

TAF (pilot weather forecast)

Closest forecast is Calgary International Airport, 9.7 nm (18.0 km) N. Retrieved 2019/09/21 18:42 UTC (0 seconds ago):

TAF CYYC 211738Z 2118/2218 21010KT P6SM SCT050 BKN100 TEMPO 2118/2122 BKN050 BKN100 BECMG 2118/2120 26010KT FM212200 26010KT P6SM FEW050 SCT100 FM220300 26005KT P6SM FEW200 RMK NXT FCST BY 212100Z